sensor_id;sensor_type;location;lat;lon;timestamp;temperature;humidity
18753;DHT22;9505;50.882;5.350;2023-02-02T00:02:04;8.10;99.90
18753;DHT22;9505;50.882;5.350;2023-02-02T00:04:32;8.00;99.90
18753;DHT22;9505;50.882;5.350;2023-02-02T00:06:58;8.00;99.90
18753;DHT22;9505;50.882;5.350;2023-02-02T00:09:27;8.00;99.90
18753;DHT22;9505;50.882;5.350;2023-02-02T00:11:54;8.10;99.90
18753;DHT22;9505;50.882;5.350;2023-02-02T00:14:20;8.10;99.90
18753;DHT22;9505;50.882;5.350;2023-02-02T00:16:48;8.10;99.90
18753;DHT22;9505;50.882;5.350;2023-02-02T00:19:22;8.10;99.90
18753;DHT22;9505;50.882;5.350;2023-02-02T00:21:49;8.10;99.90
18753;DHT22;9505;50.882;5.350;2023-02-02T00:24:16;8.10;99.90
18753;DHT22;9505;50.882;5.350;2023-02-02T00:26:48;8.10;99.90
18753;DHT22;9505;50.882;5.350;2023-02-02T00:29:19;8.10;99.90
18753;DHT22;9505;50.882;5.350;2023-02-02T00:31:45;8.10;99.90
18753;DHT22;9505;50.882;5.350;2023-02-02T00:34:14;8.10;99.90
18753;DHT22;9505;50.882;5.350;2023-02-02T00:36:41;8.10;99.90
18753;DHT22;9505;50.882;5.350;2023-02-02T00:39:07;8.10;99.90
18753;DHT22;9505;50.882;5.350;2023-02-02T00:41:33;8.20;99.90
18753;DHT22;9505;50.882;5.350;2023-02-02T00:43:59;8.20;99.90
18753;DHT22;9505;50.882;5.350;2023-02-02T00:46:43;8.20;99.90
18753;DHT22;9505;50.882;5.350;2023-02-02T00:49:09;8.20;99.90
18753;DHT22;9505;50.882;5.350;2023-02-02T00:51:35;8.10;99.90
18753;DHT22;9505;50.882;5.350;2023-02-02T00:54:02;8.20;99.90
18753;DHT22;9505;50.882;5.350;2023-02-02T00:56:28;8.20;99.90
18753;DHT22;9505;50.882;5.350;2023-02-02T00:58:54;8.20;99.90
18753;DHT22;9505;50.882;5.350;2023-02-02T01:01:21;8.20;99.90
18753;DHT22;9505;50.882;5.350;2023-02-02T01:03:48;8.20;99.90
18753;DHT22;9505;50.882;5.350;2023-02-02T01:06:13;8.30;99.90
18753;DHT22;9505;50.882;5.350;2023-02-02T01:08:39;8.30;99.90
18753;DHT22;9505;50.882;5.350;2023-02-02T01:11:05;8.30;99.90
18753;DHT22;9505;50.882;5.350;2023-02-02T01:13:32;8.30;99.90
18753;DHT22;9505;50.882;5.350;2023-02-02T01:15:59;8.30;99.90
18753;DHT22;9505;50.882;5.350;2023-02-02T01:18:25;8.30;99.90
18753;DHT22;9505;50.882;5.350;2023-02-02T01:23:23;8.40;99.90
18753;DHT22;9505;50.882;5.350;2023-02-02T01:26:01;8.40;99.90
18753;DHT22;9505;50.882;5.350;2023-02-02T01:28:27;8.40;99.90
18753;DHT22;9505;50.882;5.350;2023-02-02T01:30:54;8.40;99.90
18753;DHT22;9505;50.882;5.350;2023-02-02T01:33:20;8.40;99.90
18753;DHT22;9505;50.882;5.350;2023-02-02T01:35:51;8.40;99.90
18753;DHT22;9505;50.882;5.350;2023-02-02T01:38:17;8.40;99.90
18753;DHT22;9505;50.882;5.350;2023-02-02T01:40:52;8.40;99.90
18753;DHT22;9505;50.882;5.350;2023-02-02T01:43:27;8.30;99.90
18753;DHT22;9505;50.882;5.350;2023-02-02T01:45:55;8.30;99.90
18753;DHT22;9505;50.882;5.350;2023-02-02T01:48:25;8.30;99.90
18753;DHT22;9505;50.882;5.350;2023-02-02T01:50:54;8.40;99.90
18753;DHT22;9505;50.882;5.350;2023-02-02T01:53:21;8.40;99.90
18753;DHT22;9505;50.882;5.350;2023-02-02T01:55:48;8.40;99.90
18753;DHT22;9505;50.882;5.350;2023-02-02T01:58:21;8.40;99.90
18753;DHT22;9505;50.882;5.350;2023-02-02T02:00:47;8.40;99.90
18753;DHT22;9505;50.882;5.350;2023-02-02T02:03:23;8.40;99.90
18753;DHT22;9505;50.882;5.350;2023-02-02T02:06:04;8.30;99.90
18753;DHT22;9505;50.882;5.350;2023-02-02T02:11:17;8.30;99.90
18753;DHT22;9505;50.882;5.350;2023-02-02T02:13:43;8.30;99.90
18753;DHT22;9505;50.882;5.350;2023-02-02T02:22:12;8.30;99.90
18753;DHT22;9505;50.882;5.350;2023-02-02T02:34:19;8.30;99.90
18753;DHT22;9505;50.882;5.350;2023-02-02T02:39:49;8.40;99.90
18753;DHT22;9505;50.882;5.350;2023-02-02T02:42:19;8.30;99.90
18753;DHT22;9505;50.882;5.350;2023-02-02T02:44:47;8.30;99.90
18753;DHT22;9505;50.882;5.350;2023-02-02T02:47:13;8.30;99.90
18753;DHT22;9505;50.882;5.350;2023-02-02T02:49:47;8.30;99.90
18753;DHT22;9505;50.882;5.350;2023-02-02T02:52:14;8.30;99.90
18753;DHT22;9505;50.882;5.350;2023-02-02T02:54:47;8.30;99.90
18753;DHT22;9505;50.882;5.350;2023-02-02T03:05:41;8.30;99.90
18753;DHT22;9505;50.882;5.350;2023-02-02T03:08:31;8.30;99.90
18753;DHT22;9505;50.882;5.350;2023-02-02T03:10:58;8.30;99.90
18753;DHT22;9505;50.882;5.350;2023-02-02T03:13:25;8.30;99.90
18753;DHT22;9505;50.882;5.350;2023-02-02T03:15:51;8.30;99.90
18753;DHT22;9505;50.882;5.350;2023-02-02T03:18:20;8.30;99.90
18753;DHT22;9505;50.882;5.350;2023-02-02T03:20:46;8.30;99.90
18753;DHT22;9505;50.882;5.350;2023-02-02T03:23:13;8.30;99.90
18753;DHT22;9505;50.882;5.350;2023-02-02T03:25:39;8.30;99.90
18753;DHT22;9505;50.882;5.350;2023-02-02T03:28:05;8.30;99.90
18753;DHT22;9505;50.882;5.350;2023-02-02T03:30:31;8.30;99.90
18753;DHT22;9505;50.882;5.350;2023-02-02T03:32:57;8.30;99.90
18753;DHT22;9505;50.882;5.350;2023-02-02T03:35:23;8.30;99.90
18753;DHT22;9505;50.882;5.350;2023-02-02T03:37:50;8.30;99.90
18753;DHT22;9505;50.882;5.350;2023-02-02T03:40:16;8.30;99.90
18753;DHT22;9505;50.882;5.350;2023-02-02T03:42:42;8.30;99.90
18753;DHT22;9505;50.882;5.350;2023-02-02T03:45:08;8.30;99.90
18753;DHT22;9505;50.882;5.350;2023-02-02T03:47:34;8.20;99.90
18753;DHT22;9505;50.882;5.350;2023-02-02T03:49:59;8.20;99.90
18753;DHT22;9505;50.882;5.350;2023-02-02T03:52:25;8.20;99.90
18753;DHT22;9505;50.882;5.350;2023-02-02T03:54:51;8.20;99.90
18753;DHT22;9505;50.882;5.350;2023-02-02T03:57:17;8.20;99.90
18753;DHT22;9505;50.882;5.350;2023-02-02T03:59:43;8.20;99.90
18753;DHT22;9505;50.882;5.350;2023-02-02T04:02:08;8.30;99.90
18753;DHT22;9505;50.882;5.350;2023-02-02T04:04:34;8.20;99.90
18753;DHT22;9505;50.882;5.350;2023-02-02T04:06:59;8.20;99.90
18753;DHT22;9505;50.882;5.350;2023-02-02T04:09:26;8.10;99.90
18753;DHT22;9505;50.882;5.350;2023-02-02T04:11:52;8.10;99.90
18753;DHT22;9505;50.882;5.350;2023-02-02T04:14:17;8.10;99.90
18753;DHT22;9505;50.882;5.350;2023-02-02T04:16:43;8.10;99.90
18753;DHT22;9505;50.882;5.350;2023-02-02T04:19:08;8.10;99.90
18753;DHT22;9505;50.882;5.350;2023-02-02T04:21:34;8.00;99.90
18753;DHT22;9505;50.882;5.350;2023-02-02T04:24:00;8.00;99.90
18753;DHT22;9505;50.882;5.350;2023-02-02T04:26:25;8.00;99.90
18753;DHT22;9505;50.882;5.350;2023-02-02T04:28:52;8.00;99.90
18753;DHT22;9505;50.882;5.350;2023-02-02T04:31:18;7.80;99.90
18753;DHT22;9505;50.882;5.350;2023-02-02T04:33:43;7.70;99.90
18753;DHT22;9505;50.882;5.350;2023-02-02T04:36:09;7.70;99.90
18753;DHT22;9505;50.882;5.350;2023-02-02T04:38:35;7.60;99.90
18753;DHT22;9505;50.882;5.350;2023-02-02T04:41:08;7.60;99.90
18753;DHT22;9505;50.882;5.350;2023-02-02T04:43:35;7.60;99.90
18753;DHT22;9505;50.882;5.350;2023-02-02T04:46:01;7.60;99.90
18753;DHT22;9505;50.882;5.350;2023-02-02T04:48:26;7.60;99.90
18753;DHT22;9505;50.882;5.350;2023-02-02T04:50:58;7.50;99.90
18753;DHT22;9505;50.882;5.350;2023-02-02T04:53:24;7.40;99.90
18753;DHT22;9505;50.882;5.350;2023-02-02T04:55:49;7.30;99.90
18753;DHT22;9505;50.882;5.350;2023-02-02T04:58:15;7.40;99.90
18753;DHT22;9505;50.882;5.350;2023-02-02T05:00:40;7.40;99.90
18753;DHT22;9505;50.882;5.350;2023-02-02T05:03:06;7.40;99.90
18753;DHT22;9505;50.882;5.350;2023-02-02T05:05:31;7.40;99.90
18753;DHT22;9505;50.882;5.350;2023-02-02T05:07:57;7.40;99.90
18753;DHT22;9505;50.882;5.350;2023-02-02T05:10:24;7.30;99.90
18753;DHT22;9505;50.882;5.350;2023-02-02T05:12:52;7.30;99.90
18753;DHT22;9505;50.882;5.350;2023-02-02T05:15:17;7.30;99.90
18753;DHT22;9505;50.882;5.350;2023-02-02T05:17:43;7.30;99.90
18753;DHT22;9505;50.882;5.350;2023-02-02T05:20:09;7.30;99.90
18753;DHT22;9505;50.882;5.350;2023-02-02T05:22:35;7.40;99.90
18753;DHT22;9505;50.882;5.350;2023-02-02T05:25:00;7.40;99.90
18753;DHT22;9505;50.882;5.350;2023-02-02T05:27:26;7.40;99.90
18753;DHT22;9505;50.882;5.350;2023-02-02T05:29:52;7.40;99.90
18753;DHT22;9505;50.882;5.350;2023-02-02T05:32:17;7.40;99.90
18753;DHT22;9505;50.882;5.350;2023-02-02T05:34:43;7.50;99.90
18753;DHT22;9505;50.882;5.350;2023-02-02T05:37:08;7.50;99.90
18753;DHT22;9505;50.882;5.350;2023-02-02T05:39:34;7.50;99.90
18753;DHT22;9505;50.882;5.350;2023-02-02T05:42:00;7.60;99.90
18753;DHT22;9505;50.882;5.350;2023-02-02T05:44:25;7.60;99.90
18753;DHT22;9505;50.882;5.350;2023-02-02T05:46:51;7.60;99.90
18753;DHT22;9505;50.882;5.350;2023-02-02T05:49:16;7.50;99.90
18753;DHT22;9505;50.882;5.350;2023-02-02T05:51:45;7.60;99.90
18753;DHT22;9505;50.882;5.350;2023-02-02T05:54:11;7.60;99.90
18753;DHT22;9505;50.882;5.350;2023-02-02T05:56:37;7.60;99.90
18753;DHT22;9505;50.882;5.350;2023-02-02T05:59:03;7.60;99.90
18753;DHT22;9505;50.882;5.350;2023-02-02T06:01:32;7.60;99.90
18753;DHT22;9505;50.882;5.350;2023-02-02T06:03:58;7.70;99.90
18753;DHT22;9505;50.882;5.350;2023-02-02T06:06:23;7.70;99.90
18753;DHT22;9505;50.882;5.350;2023-02-02T06:08:49;7.70;99.90
18753;DHT22;9505;50.882;5.350;2023-02-02T06:11:16;7.70;99.90
18753;DHT22;9505;50.882;5.350;2023-02-02T06:13:42;7.70;99.90
18753;DHT22;9505;50.882;5.350;2023-02-02T06:16:08;7.70;99.90
18753;DHT22;9505;50.882;5.350;2023-02-02T06:18:35;7.70;99.90
18753;DHT22;9505;50.882;5.350;2023-02-02T06:21:02;7.60;99.90
18753;DHT22;9505;50.882;5.350;2023-02-02T06:23:30;7.60;99.90
18753;DHT22;9505;50.882;5.350;2023-02-02T06:25:56;7.60;99.90
18753;DHT22;9505;50.882;5.350;2023-02-02T06:28:21;7.50;99.90
18753;DHT22;9505;50.882;5.350;2023-02-02T06:30:47;7.50;99.90
18753;DHT22;9505;50.882;5.350;2023-02-02T06:33:12;7.50;99.90
18753;DHT22;9505;50.882;5.350;2023-02-02T06:35:38;7.50;99.90
18753;DHT22;9505;50.882;5.350;2023-02-02T06:38:04;7.60;99.90
18753;DHT22;9505;50.882;5.350;2023-02-02T06:40:29;7.50;99.90
18753;DHT22;9505;50.882;5.350;2023-02-02T06:42:59;7.40;99.90
18753;DHT22;9505;50.882;5.350;2023-02-02T06:45:26;7.40;99.90
18753;DHT22;9505;50.882;5.350;2023-02-02T06:47:52;7.40;99.90
18753;DHT22;9505;50.882;5.350;2023-02-02T06:50:18;7.40;99.90
18753;DHT22;9505;50.882;5.350;2023-02-02T06:52:48;7.40;99.90
18753;DHT22;9505;50.882;5.350;2023-02-02T06:55:13;7.40;99.90
18753;DHT22;9505;50.882;5.350;2023-02-02T06:57:39;7.40;99.90
18753;DHT22;9505;50.882;5.350;2023-02-02T07:00:05;7.40;99.90
18753;DHT22;9505;50.882;5.350;2023-02-02T07:02:31;7.40;99.90
18753;DHT22;9505;50.882;5.350;2023-02-02T07:04:56;7.40;99.90
18753;DHT22;9505;50.882;5.350;2023-02-02T07:07:22;7.40;99.90
18753;DHT22;9505;50.882;5.350;2023-02-02T07:09:47;7.30;99.90
18753;DHT22;9505;50.882;5.350;2023-02-02T07:12:13;7.20;99.90
18753;DHT22;9505;50.882;5.350;2023-02-02T07:14:39;7.20;99.90
18753;DHT22;9505;50.882;5.350;2023-02-02T07:17:04;7.30;99.90
18753;DHT22;9505;50.882;5.350;2023-02-02T07:19:30;7.30;99.90
18753;DHT22;9505;50.882;5.350;2023-02-02T07:21:55;7.30;99.90
18753;DHT22;9505;50.882;5.350;2023-02-02T07:24:21;7.30;99.90
18753;DHT22;9505;50.882;5.350;2023-02-02T07:26:46;7.30;99.90
18753;DHT22;9505;50.882;5.350;2023-02-02T07:29:12;7.20;99.90
18753;DHT22;9505;50.882;5.350;2023-02-02T07:31:39;7.30;99.90
18753;DHT22;9505;50.882;5.350;2023-02-02T07:34:05;7.40;99.90
18753;DHT22;9505;50.882;5.350;2023-02-02T07:36:30;7.40;99.90
18753;DHT22;9505;50.882;5.350;2023-02-02T07:38:56;7.40;99.90
18753;DHT22;9505;50.882;5.350;2023-02-02T07:41:22;7.40;99.90
18753;DHT22;9505;50.882;5.350;2023-02-02T07:43:49;7.30;99.90
18753;DHT22;9505;50.882;5.350;2023-02-02T07:46:16;7.40;99.90
18753;DHT22;9505;50.882;5.350;2023-02-02T07:48:42;7.40;99.90
18753;DHT22;9505;50.882;5.350;2023-02-02T07:51:11;7.40;99.90
18753;DHT22;9505;50.882;5.350;2023-02-02T07:53:37;7.30;99.90
18753;DHT22;9505;50.882;5.350;2023-02-02T07:56:11;7.40;99.90
18753;DHT22;9505;50.882;5.350;2023-02-02T07:58:37;7.30;99.90
18753;DHT22;9505;50.882;5.350;2023-02-02T08:01:05;7.40;99.90
18753;DHT22;9505;50.882;5.350;2023-02-02T08:03:31;7.40;99.90
18753;DHT22;9505;50.882;5.350;2023-02-02T08:05:57;7.40;99.90
18753;DHT22;9505;50.882;5.350;2023-02-02T08:08:23;7.40;99.90
18753;DHT22;9505;50.882;5.350;2023-02-02T08:10:50;7.40;99.90
18753;DHT22;9505;50.882;5.350;2023-02-02T08:13:16;7.40;99.90
18753;DHT22;9505;50.882;5.350;2023-02-02T08:15:41;7.30;99.90
18753;DHT22;9505;50.882;5.350;2023-02-02T08:18:07;7.30;99.90
18753;DHT22;9505;50.882;5.350;2023-02-02T08:20:32;7.30;99.90
18753;DHT22;9505;50.882;5.350;2023-02-02T08:22:58;7.30;99.90
18753;DHT22;9505;50.882;5.350;2023-02-02T08:25:24;7.20;99.90
18753;DHT22;9505;50.882;5.350;2023-02-02T08:27:56;7.20;99.90
18753;DHT22;9505;50.882;5.350;2023-02-02T08:30:27;7.30;99.90
18753;DHT22;9505;50.882;5.350;2023-02-02T08:32:53;7.30;99.90
18753;DHT22;9505;50.882;5.350;2023-02-02T08:35:18;7.30;99.90
18753;DHT22;9505;50.882;5.350;2023-02-02T08:37:47;7.30;99.90
18753;DHT22;9505;50.882;5.350;2023-02-02T08:40:13;7.40;99.90
18753;DHT22;9505;50.882;5.350;2023-02-02T08:42:39;7.40;99.90
18753;DHT22;9505;50.882;5.350;2023-02-02T08:45:05;7.50;99.90
18753;DHT22;9505;50.882;5.350;2023-02-02T08:47:31;7.50;99.90
18753;DHT22;9505;50.882;5.350;2023-02-02T08:49:56;7.60;99.90
18753;DHT22;9505;50.882;5.350;2023-02-02T08:52:22;7.60;99.90
18753;DHT22;9505;50.882;5.350;2023-02-02T08:54:48;7.60;99.90
18753;DHT22;9505;50.882;5.350;2023-02-02T08:57:13;7.60;99.90
18753;DHT22;9505;50.882;5.350;2023-02-02T08:59:39;7.60;99.90
18753;DHT22;9505;50.882;5.350;2023-02-02T09:02:04;7.70;99.90
18753;DHT22;9505;50.882;5.350;2023-02-02T09:04:30;7.80;99.90
18753;DHT22;9505;50.882;5.350;2023-02-02T09:06:55;7.90;99.90
18753;DHT22;9505;50.882;5.350;2023-02-02T09:09:21;8.10;99.90
18753;DHT22;9505;50.882;5.350;2023-02-02T09:11:47;7.90;99.90
18753;DHT22;9505;50.882;5.350;2023-02-02T09:14:13;7.90;99.90
18753;DHT22;9505;50.882;5.350;2023-02-02T09:16:39;7.90;99.90
18753;DHT22;9505;50.882;5.350;2023-02-02T09:19:05;7.90;99.90
18753;DHT22;9505;50.882;5.350;2023-02-02T09:21:30;8.00;99.90
18753;DHT22;9505;50.882;5.350;2023-02-02T09:24:08;8.10;99.90
18753;DHT22;9505;50.882;5.350;2023-02-02T09:26:34;8.10;99.90
18753;DHT22;9505;50.882;5.350;2023-02-02T09:29:02;8.20;99.90
18753;DHT22;9505;50.882;5.350;2023-02-02T09:31:31;8.10;99.90
18753;DHT22;9505;50.882;5.350;2023-02-02T09:34:01;8.10;99.90
18753;DHT22;9505;50.882;5.350;2023-02-02T09:36:28;8.10;99.90
18753;DHT22;9505;50.882;5.350;2023-02-02T09:38:53;8.10;99.90
18753;DHT22;9505;50.882;5.350;2023-02-02T09:44:56;8.20;99.90
18753;DHT22;9505;50.882;5.350;2023-02-02T09:52:40;8.40;99.90
18753;DHT22;9505;50.882;5.350;2023-02-02T09:55:17;8.40;99.90
18753;DHT22;9505;50.882;5.350;2023-02-02T09:58:26;8.30;99.90
18753;DHT22;9505;50.882;5.350;2023-02-02T10:01:05;8.30;99.90
18753;DHT22;9505;50.882;5.350;2023-02-02T10:03:36;8.50;99.90
18753;DHT22;9505;50.882;5.350;2023-02-02T10:12:30;8.60;99.90
18753;DHT22;9505;50.882;5.350;2023-02-02T10:22:56;8.80;99.90
18753;DHT22;9505;50.882;5.350;2023-02-02T10:25:26;8.80;99.90
18753;DHT22;9505;50.882;5.350;2023-02-02T10:28:03;8.90;99.90
18753;DHT22;9505;50.882;5.350;2023-02-02T10:30:45;9.00;99.90
18753;DHT22;9505;50.882;5.350;2023-02-02T10:36:17;9.00;99.90
18753;DHT22;9505;50.882;5.350;2023-02-02T10:39:15;9.00;99.90
18753;DHT22;9505;50.882;5.350;2023-02-02T10:42:03;9.00;99.90
18753;DHT22;9505;50.882;5.350;2023-02-02T10:44:49;9.00;99.90
18753;DHT22;9505;50.882;5.350;2023-02-02T10:47:26;9.00;99.90
18753;DHT22;9505;50.882;5.350;2023-02-02T10:52:35;9.00;99.90
18753;DHT22;9505;50.882;5.350;2023-02-02T11:00:56;9.30;99.90
18753;DHT22;9505;50.882;5.350;2023-02-02T11:03:27;9.40;99.90
18753;DHT22;9505;50.882;5.350;2023-02-02T11:05:53;9.50;99.90
18753;DHT22;9505;50.882;5.350;2023-02-02T11:08:40;9.60;99.90
18753;DHT22;9505;50.882;5.350;2023-02-02T11:16:17;9.70;99.90
18753;DHT22;9505;50.882;5.350;2023-02-02T11:18:43;9.60;99.90
18753;DHT22;9505;50.882;5.350;2023-02-02T11:21:30;9.60;99.90
18753;DHT22;9505;50.882;5.350;2023-02-02T11:24:05;9.70;99.90
18753;DHT22;9505;50.882;5.350;2023-02-02T11:26:44;9.70;99.90
18753;DHT22;9505;50.882;5.350;2023-02-02T11:29:19;9.80;99.90
18753;DHT22;9505;50.882;5.350;2023-02-02T11:31:47;9.70;99.90
18753;DHT22;9505;50.882;5.350;2023-02-02T11:34:22;9.80;99.90
18753;DHT22;9505;50.882;5.350;2023-02-02T11:37:10;9.70;99.90
18753;DHT22;9505;50.882;5.350;2023-02-02T11:39:37;9.90;99.90
18753;DHT22;9505;50.882;5.350;2023-02-02T11:42:06;10.00;99.90
18753;DHT22;9505;50.882;5.350;2023-02-02T11:44:33;9.80;99.90
18753;DHT22;9505;50.882;5.350;2023-02-02T11:47:02;10.00;99.90
18753;DHT22;9505;50.882;5.350;2023-02-02T11:49:32;10.00;99.90
18753;DHT22;9505;50.882;5.350;2023-02-02T11:52:04;10.00;99.90
18753;DHT22;9505;50.882;5.350;2023-02-02T11:54:33;10.30;99.90
18753;DHT22;9505;50.882;5.350;2023-02-02T11:57:02;10.40;99.90
18753;DHT22;9505;50.882;5.350;2023-02-02T12:04:45;11.00;99.90
18753;DHT22;9505;50.882;5.350;2023-02-02T12:07:28;11.30;99.90
18753;DHT22;9505;50.882;5.350;2023-02-02T12:09:59;11.00;99.90
18753;DHT22;9505;50.882;5.350;2023-02-02T12:17:43;10.60;99.90
18753;DHT22;9505;50.882;5.350;2023-02-02T12:20:30;10.50;99.90
18753;DHT22;9505;50.882;5.350;2023-02-02T12:23:13;10.50;99.90
18753;DHT22;9505;50.882;5.350;2023-02-02T12:36:57;10.40;99.90
18753;DHT22;9505;50.882;5.350;2023-02-02T12:48:24;10.30;99.90
18753;DHT22;9505;50.882;5.350;2023-02-02T12:53:29;10.10;99.90
18753;DHT22;9505;50.882;5.350;2023-02-02T13:06:54;10.90;99.90
18753;DHT22;9505;50.882;5.350;2023-02-02T13:11:56;11.30;99.90
18753;DHT22;9505;50.882;5.350;2023-02-02T13:14:29;11.50;99.90
18753;DHT22;9505;50.882;5.350;2023-02-02T13:16:59;11.50;99.90
18753;DHT22;9505;50.882;5.350;2023-02-02T13:19:39;11.60;99.90
18753;DHT22;9505;50.882;5.350;2023-02-02T13:22:12;11.90;99.90
18753;DHT22;9505;50.882;5.350;2023-02-02T13:24:41;11.60;99.90
18753;DHT22;9505;50.882;5.350;2023-02-02T13:27:14;11.30;99.90
18753;DHT22;9505;50.882;5.350;2023-02-02T13:32:29;11.60;99.90
18753;DHT22;9505;50.882;5.350;2023-02-02T13:37:41;11.60;99.90
18753;DHT22;9505;50.882;5.350;2023-02-02T13:40:19;11.60;99.90
18753;DHT22;9505;50.882;5.350;2023-02-02T13:47:51;11.10;99.90
18753;DHT22;9505;50.882;5.350;2023-02-02T13:50:20;11.40;99.90
18753;DHT22;9505;50.882;5.350;2023-02-02T13:56:23;11.70;99.90
18753;DHT22;9505;50.882;5.350;2023-02-02T14:01:33;11.70;99.90
18753;DHT22;9505;50.882;5.350;2023-02-02T14:03:59;11.30;99.90
18753;DHT22;9505;50.882;5.350;2023-02-02T14:06:26;11.30;99.90
18753;DHT22;9505;50.882;5.350;2023-02-02T14:11:37;11.90;99.90
18753;DHT22;9505;50.882;5.350;2023-02-02T14:14:15;11.60;99.90
18753;DHT22;9505;50.882;5.350;2023-02-02T14:24:38;10.70;99.90
18753;DHT22;9505;50.882;5.350;2023-02-02T14:29:33;10.90;99.90
18753;DHT22;9505;50.882;5.350;2023-02-02T14:34:39;11.00;99.90
18753;DHT22;9505;50.882;5.350;2023-02-02T14:45:41;11.90;99.90
18753;DHT22;9505;50.882;5.350;2023-02-02T14:48:24;11.50;99.90
18753;DHT22;9505;50.882;5.350;2023-02-02T14:50:55;11.20;99.90
18753;DHT22;9505;50.882;5.350;2023-02-02T14:53:30;11.00;99.90
18753;DHT22;9505;50.882;5.350;2023-02-02T14:56:07;10.80;99.90
18753;DHT22;9505;50.882;5.350;2023-02-02T14:58:39;10.70;99.90
18753;DHT22;9505;50.882;5.350;2023-02-02T15:01:23;10.70;99.90
18753;DHT22;9505;50.882;5.350;2023-02-02T15:06:47;10.50;99.90
18753;DHT22;9505;50.882;5.350;2023-02-02T15:28:37;10.20;99.90
18753;DHT22;9505;50.882;5.350;2023-02-02T15:31:34;10.20;99.90
18753;DHT22;9505;50.882;5.350;2023-02-02T15:34:14;10.00;99.90
18753;DHT22;9505;50.882;5.350;2023-02-02T15:36:43;10.00;99.90
18753;DHT22;9505;50.882;5.350;2023-02-02T15:39:30;10.10;99.90
18753;DHT22;9505;50.882;5.350;2023-02-02T15:42:00;10.10;99.90
18753;DHT22;9505;50.882;5.350;2023-02-02T15:44:45;10.10;99.90
18753;DHT22;9505;50.882;5.350;2023-02-02T15:47:15;10.10;99.90
18753;DHT22;9505;50.882;5.350;2023-02-02T15:49:41;10.10;99.90
18753;DHT22;9505;50.882;5.350;2023-02-02T15:52:26;10.00;99.90
18753;DHT22;9505;50.882;5.350;2023-02-02T15:54:57;10.00;99.90
18753;DHT22;9505;50.882;5.350;2023-02-02T15:59:49;10.00;99.90
18753;DHT22;9505;50.882;5.350;2023-02-02T16:02:33;10.00;99.90
18753;DHT22;9505;50.882;5.350;2023-02-02T16:05:00;10.10;99.90
18753;DHT22;9505;50.882;5.350;2023-02-02T16:07:30;10.10;99.90
18753;DHT22;9505;50.882;5.350;2023-02-02T16:10:04;10.00;99.90
18753;DHT22;9505;50.882;5.350;2023-02-02T16:12:31;9.90;99.90
18753;DHT22;9505;50.882;5.350;2023-02-02T16:14:57;9.90;99.90
18753;DHT22;9505;50.882;5.350;2023-02-02T16:17:30;9.90;99.90
18753;DHT22;9505;50.882;5.350;2023-02-02T16:20:02;10.00;99.90
18753;DHT22;9505;50.882;5.350;2023-02-02T16:22:33;9.90;99.90
18753;DHT22;9505;50.882;5.350;2023-02-02T16:25:02;10.00;99.90
18753;DHT22;9505;50.882;5.350;2023-02-02T16:27:30;10.00;99.90
18753;DHT22;9505;50.882;5.350;2023-02-02T16:30:00;10.00;99.90
18753;DHT22;9505;50.882;5.350;2023-02-02T16:32:33;9.90;99.90
18753;DHT22;9505;50.882;5.350;2023-02-02T16:35:01;9.90;99.90
18753;DHT22;9505;50.882;5.350;2023-02-02T16:37:31;10.00;99.90
18753;DHT22;9505;50.882;5.350;2023-02-02T16:40:29;9.90;99.90
18753;DHT22;9505;50.882;5.350;2023-02-02T16:43:27;9.90;99.90
18753;DHT22;9505;50.882;5.350;2023-02-02T16:48:32;9.90;99.90
18753;DHT22;9505;50.882;5.350;2023-02-02T16:58:55;10.00;99.90
18753;DHT22;9505;50.882;5.350;2023-02-02T17:01:41;10.00;99.90
18753;DHT22;9505;50.882;5.350;2023-02-02T17:04:23;9.80;99.90
18753;DHT22;9505;50.882;5.350;2023-02-02T17:06:50;9.90;99.90
18753;DHT22;9505;50.882;5.350;2023-02-02T17:09:30;9.90;99.90
18753;DHT22;9505;50.882;5.350;2023-02-02T17:12:20;9.80;99.90
18753;DHT22;9505;50.882;5.350;2023-02-02T17:14:58;9.90;99.90
18753;DHT22;9505;50.882;5.350;2023-02-02T17:17:26;9.90;99.90
18753;DHT22;9505;50.882;5.350;2023-02-02T17:19:52;9.90;99.90
18753;DHT22;9505;50.882;5.350;2023-02-02T17:22:20;9.80;99.90
18753;DHT22;9505;50.882;5.350;2023-02-02T17:24:48;9.80;99.90
18753;DHT22;9505;50.882;5.350;2023-02-02T17:27:24;9.70;99.90
18753;DHT22;9505;50.882;5.350;2023-02-02T17:29:51;9.70;99.90
18753;DHT22;9505;50.882;5.350;2023-02-02T17:32:17;9.70;99.90
18753;DHT22;9505;50.882;5.350;2023-02-02T17:34:42;9.70;99.90
18753;DHT22;9505;50.882;5.350;2023-02-02T17:37:10;9.70;99.90
18753;DHT22;9505;50.882;5.350;2023-02-02T17:39:36;9.70;99.90
18753;DHT22;9505;50.882;5.350;2023-02-02T17:42:01;9.60;99.90
18753;DHT22;9505;50.882;5.350;2023-02-02T17:44:27;9.50;99.90
18753;DHT22;9505;50.882;5.350;2023-02-02T17:46:53;9.50;99.90
18753;DHT22;9505;50.882;5.350;2023-02-02T17:49:18;9.50;99.90
18753;DHT22;9505;50.882;5.350;2023-02-02T17:51:44;9.40;99.90
18753;DHT22;9505;50.882;5.350;2023-02-02T17:54:14;9.40;99.90
18753;DHT22;9505;50.882;5.350;2023-02-02T17:56:41;9.40;99.90
18753;DHT22;9505;50.882;5.350;2023-02-02T17:59:07;9.40;99.90
18753;DHT22;9505;50.882;5.350;2023-02-02T18:01:34;9.40;99.90
18753;DHT22;9505;50.882;5.350;2023-02-02T18:04:03;9.40;99.90
18753;DHT22;9505;50.882;5.350;2023-02-02T18:06:29;9.40;99.90
18753;DHT22;9505;50.882;5.350;2023-02-02T18:08:55;9.40;99.90
18753;DHT22;9505;50.882;5.350;2023-02-02T18:11:20;9.40;99.90
18753;DHT22;9505;50.882;5.350;2023-02-02T18:13:46;9.40;99.90
18753;DHT22;9505;50.882;5.350;2023-02-02T18:16:12;9.40;99.90
18753;DHT22;9505;50.882;5.350;2023-02-02T18:18:38;9.30;99.90
18753;DHT22;9505;50.882;5.350;2023-02-02T18:21:10;9.30;99.90
18753;DHT22;9505;50.882;5.350;2023-02-02T18:23:36;9.30;99.90
18753;DHT22;9505;50.882;5.350;2023-02-02T18:26:16;9.30;99.90
18753;DHT22;9505;50.882;5.350;2023-02-02T18:28:42;9.30;99.90
18753;DHT22;9505;50.882;5.350;2023-02-02T18:31:13;9.30;99.90
18753;DHT22;9505;50.882;5.350;2023-02-02T18:33:40;9.30;99.90
18753;DHT22;9505;50.882;5.350;2023-02-02T18:36:13;9.40;99.90
18753;DHT22;9505;50.882;5.350;2023-02-02T18:38:41;9.30;99.90
18753;DHT22;9505;50.882;5.350;2023-02-02T18:41:11;9.20;99.90
18753;DHT22;9505;50.882;5.350;2023-02-02T18:43:37;9.30;99.90
18753;DHT22;9505;50.882;5.350;2023-02-02T18:46:05;9.30;99.90
18753;DHT22;9505;50.882;5.350;2023-02-02T18:48:33;9.20;99.90
18753;DHT22;9505;50.882;5.350;2023-02-02T18:51:04;9.30;99.90
18753;DHT22;9505;50.882;5.350;2023-02-02T18:53:30;9.30;99.90
18753;DHT22;9505;50.882;5.350;2023-02-02T18:55:56;9.20;99.90
18753;DHT22;9505;50.882;5.350;2023-02-02T18:58:22;9.20;99.90
18753;DHT22;9505;50.882;5.350;2023-02-02T19:00:49;9.30;99.90
18753;DHT22;9505;50.882;5.350;2023-02-02T19:03:16;9.30;99.90
18753;DHT22;9505;50.882;5.350;2023-02-02T19:05:41;9.30;99.90
18753;DHT22;9505;50.882;5.350;2023-02-02T19:08:25;9.30;99.90
18753;DHT22;9505;50.882;5.350;2023-02-02T19:10:57;9.30;99.90
18753;DHT22;9505;50.882;5.350;2023-02-02T19:13:26;9.30;99.90
18753;DHT22;9505;50.882;5.350;2023-02-02T19:15:52;9.30;99.90
18753;DHT22;9505;50.882;5.350;2023-02-02T19:18:22;9.40;99.90
18753;DHT22;9505;50.882;5.350;2023-02-02T19:20:49;9.30;99.90
18753;DHT22;9505;50.882;5.350;2023-02-02T19:23:18;9.30;99.90
18753;DHT22;9505;50.882;5.350;2023-02-02T19:25:46;9.30;99.90
18753;DHT22;9505;50.882;5.350;2023-02-02T19:30:42;9.20;99.90